Time;durP1;ratioP1;P1;durP2;ratioP2;P2;SDS_P1;SDS_P2;PMS_P1;PMS_P2;Temp;Humidity;BMP_temperature;BMP_pressure;BME280_temperature;BME280_humidity;BME280_pressure;Samples;Min_cycle;Max_cycle;Signal;HPM_P1;HPM_P2
2022/10/17 00:00:38;;;;;;;5.03;1.67;;;21.40;61.90;;;;;;4171525;28;20503;-50
2022/10/17 00:03:01;;;;;;;7.45;1.70;;;21.40;62.50;;;;;;4174599;28;20839;-50
2022/10/17 00:05:24;;;;;;;27.73;3.15;;;21.40;62.50;;;;;;4168932;28;20124;-48
2022/10/17 00:07:46;;;;;;;24.65;2.67;;;21.40;62.90;;;;;;4168996;28;20041;-49
2022/10/17 00:10:09;;;;;;;40.00;3.97;;;21.40;62.80;;;;;;4166371;28;20405;-53
2022/10/17 00:12:32;;;;;;;41.00;3.50;;;21.50;63.10;;;;;;4166453;28;20132;-52
2022/10/17 00:14:54;;;;;;;31.90;3.63;;;21.50;63.20;;;;;;4168678;28;20544;-50
2022/10/17 00:17:17;;;;;;;15.32;2.60;;;21.50;63.40;;;;;;4174339;28;20043;-53
2022/10/17 00:19:39;;;;;;;12.85;2.72;;;21.50;63.20;;;;;;4170374;28;20042;-55
2022/10/17 00:22:02;;;;;;;19.67;2.58;;;21.50;63.30;;;;;;4166889;28;20030;-54
2022/10/17 00:24:24;;;;;;;24.30;2.15;;;21.50;63.30;;;;;;4168038;28;20463;-57
2022/10/17 00:26:47;;;;;;;8.00;2.08;;;21.50;63.30;;;;;;4169135;28;20107;-50
2022/10/17 00:29:09;;;;;;;11.07;1.90;;;21.60;63.30;;;;;;4167284;28;20453;-52
2022/10/17 00:31:32;;;;;;;4.18;1.67;;;21.60;63.30;;;;;;4165645;28;20045;-47
2022/10/17 00:33:54;;;;;;;13.50;2.25;;;21.60;63.40;;;;;;4170325;28;20033;-49
2022/10/17 00:36:23;;;;;;;8.13;1.85;;;21.60;63.40;;;;;;4169055;28;20059;-54
2022/10/17 00:38:49;;;;;;;15.05;2.40;;;21.60;63.30;;;;;;4171334;28;20399;-54
2022/10/17 00:41:15;;;;;;;3.65;1.85;;;21.60;63.30;;;;;;4165858;28;20419;-47
2022/10/17 00:43:54;;;;;;;8.45;1.70;;;21.60;63.20;;;;;;4169477;28;20502;-54
2022/10/17 00:46:17;;;;;;;5.47;1.60;;;21.60;63.20;;;;;;4167351;28;20551;-50
2022/10/17 00:48:42;;;;;;;5.00;1.33;;;21.60;63.20;;;;;;4169815;28;20069;-54
2022/10/17 00:51:05;;;;;;;5.47;2.00;;;21.70;63.30;;;;;;4165615;28;20183;-53
2022/10/17 00:53:28;;;;;;;5.78;1.50;;;21.70;63.30;;;;;;4165871;28;20107;-52
2022/10/17 00:55:53;;;;;;;11.23;1.65;;;21.70;63.40;;;;;;4166590;28;20040;-50
2022/10/17 00:58:17;;;;;;;7.45;1.60;;;21.70;63.60;;;;;;4164388;28;20034;-52
2022/10/17 01:00:40;;;;;;;;;;;21.70;63.40;;;;;;4165132;28;20127;-47
2022/10/17 01:03:03;;;;;;;5.00;1.60;;;21.70;63.40;;;;;;4169681;28;20254;-50
2022/10/17 01:05:25;;;;;;;7.18;1.60;;;21.70;63.30;;;;;;4170801;28;20029;-53
2022/10/17 01:07:50;;;;;;;8.23;1.42;;;21.70;63.10;;;;;;4170988;28;20057;-53
2022/10/17 01:10:14;;;;;;;4.95;1.58;;;21.70;62.80;;;;;;4173793;28;20033;-50
2022/10/17 01:12:48;;;;;;;6.28;1.63;;;21.70;62.10;;;;;;4166734;28;20088;-50
2022/10/17 01:15:19;;;;;;;;;;;21.70;61.90;;;;;;4173612;28;20194;-49
2022/10/17 01:17:53;;;;;;;2.15;1.20;;;21.60;61.80;;;;;;4170041;28;19913;-53
2022/10/17 01:20:52;;;;;;;4.13;1.40;;;21.60;61.70;;;;;;4174926;28;20047;-49
2022/10/17 01:23:44;;;;;;;2.55;1.20;;;21.60;61.70;;;;;;4169479;28;20481;-53
2022/10/17 01:26:33;;;;;;;2.50;1.13;;;21.60;61.70;;;;;;4171189;28;20077;-52
2022/10/17 01:29:01;;;;;;;2.95;1.38;;;21.50;61.60;;;;;;4169052;28;20041;-51
2022/10/17 01:31:31;;;;;;;4.38;1.40;;;21.50;61.70;;;;;;4171145;28;20465;-49
2022/10/17 01:33:59;;;;;;;3.25;1.45;;;21.50;61.70;;;;;;4170319;28;20143;-50
2022/10/17 01:36:54;;;;;;;3.35;1.30;;;21.50;61.70;;;;;;4166847;28;20048;-51
2022/10/17 01:39:21;;;;;;;5.40;1.80;;;21.50;61.70;;;;;;4172327;28;20048;-48
2022/10/17 01:41:57;;;;;;;3.95;1.45;;;21.40;61.70;;;;;;4173937;28;20045;-50
2022/10/17 01:44:37;;;;;;;3.55;1.42;;;21.40;61.70;;;;;;4177372;28;20127;-48
2022/10/17 01:47:08;;;;;;;3.05;1.48;;;21.40;61.70;;;;;;4169711;28;20424;-52
2022/10/17 01:49:33;;;;;;;4.72;1.45;;;21.40;61.70;;;;;;4170803;28;20480;-49
2022/10/17 01:52:18;;;;;;;2.58;1.20;;;21.40;61.70;;;;;;4172472;28;20191;-49
2022/10/17 01:54:48;;;;;;;2.55;1.33;;;21.40;61.60;;;;;;4167837;28;20057;-49
2022/10/17 01:57:28;;;;;;;2.60;1.13;;;21.40;61.50;;;;;;4167707;28;20045;-51
2022/10/17 01:59:54;;;;;;;2.45;0.98;;;21.40;61.50;;;;;;4169821;28;20056;-48
2022/10/17 02:02:19;;;;;;;3.88;1.50;;;21.50;61.50;;;;;;4171038;28;20048;-51
2022/10/17 02:04:43;;;;;;;2.80;1.33;;;21.50;61.50;;;;;;4176302;28;20029;-48
2022/10/17 02:07:11;;;;;;;2.53;1.02;;;21.50;61.40;;;;;;4178561;28;20033;-47
2022/10/17 02:09:34;;;;;;;2.38;1.40;;;21.50;61.40;;;;;;4176052;28;20427;-50
2022/10/17 02:12:12;;;;;;;3.72;1.30;;;21.50;61.30;;;;;;4173572;28;20107;-51
2022/10/17 02:14:42;;;;;;;2.42;1.10;;;21.50;61.20;;;;;;4168382;28;20189;-52
2022/10/17 02:17:23;;;;;;;2.97;1.15;;;21.50;61.20;;;;;;4172860;28;20119;-49
2022/10/17 02:20:22;;;;;;;2.40;1.10;;;21.50;61.20;;;;;;4171390;28;20028;-45
2022/10/17 02:23:13;;;;;;;5.40;1.38;;;21.50;61.30;;;;;;4168694;28;20063;-50
2022/10/17 02:26:02;;;;;;;2.78;1.20;;;21.50;61.20;;;;;;4170268;28;20476;-49
2022/10/17 02:28:40;;;;;;;5.43;1.73;;;21.50;61.20;;;;;;4165432;28;21455;-49
2022/10/17 02:31:12;;;;;;;6.18;1.42;;;21.50;61.30;;;;;;4171885;28;20032;-47
2022/10/17 02:33:43;;;;;;;5.03;1.70;;;21.50;61.70;;;;;;4173683;28;20044;-48
2022/10/17 02:36:14;;;;;;;2.75;1.40;;;21.50;61.90;;;;;;4172628;28;20121;-47
2022/10/17 02:38:37;;;;;;;3.15;1.30;;;21.60;62.00;;;;;;4174549;28;20443;-49
2022/10/17 02:41:03;;;;;;;4.82;1.70;;;21.60;62.10;;;;;;4180308;28;20094;-47
2022/10/17 02:43:25;;;;;;;4.65;1.40;;;21.60;62.20;;;;;;4180723;28;20361;-50
2022/10/17 02:45:49;;;;;;;3.72;1.35;;;21.70;63.00;;;;;;4173317;28;20091;-48
2022/10/17 02:48:38;;;;;;;2.53;1.20;;;21.70;62.20;;;;;;4173227;28;20106;-49
2022/10/17 02:51:04;;;;;;;4.43;1.58;;;21.70;62.20;;;;;;4164990;28;20076;-52
2022/10/17 02:53:56;;;;;;;3.20;1.15;;;21.80;62.80;;;;;;4174549;28;20038;-49
2022/10/17 02:56:20;;;;;;;5.90;1.00;;;21.80;62.30;;;;;;4176766;28;20040;-46
2022/10/17 02:58:47;;;;;;;4.20;1.73;;;21.90;62.30;;;;;;4168410;28;20385;-47
2022/10/17 03:01:10;;;;;;;4.25;1.55;;;21.90;62.40;;;;;;4171285;28;20045;-50
2022/10/17 03:03:33;;;;;;;4.68;1.67;;;21.90;61.80;;;;;;4160662;28;20052;-51
2022/10/17 03:05:55;;;;;;;5.22;1.77;;;22.00;62.00;;;;;;4176485;28;20114;-48
2022/10/17 03:08:19;;;;;;;3.25;1.38;;;21.90;62.00;;;;;;4173019;28;20041;-48
2022/10/17 03:10:41;;;;;;;5.82;1.30;;;22.00;62.30;;;;;;4174918;28;20064;-50
2022/10/17 03:13:04;;;;;;;4.03;1.45;;;22.00;62.40;;;;;;4169161;28;20032;-47
2022/10/17 03:15:26;;;;;;;4.97;1.48;;;22.00;62.40;;;;;;4166212;28;20041;-53
2022/10/17 03:17:49;;;;;;;2.78;1.25;;;22.10;62.50;;;;;;4172800;28;20041;-53
2022/10/17 03:20:11;;;;;;;2.83;1.08;;;22.10;62.50;;;;;;4170432;28;20044;-48
2022/10/17 03:22:34;;;;;;;3.47;1.20;;;22.20;62.60;;;;;;4165734;28;20148;-50
2022/10/17 03:24:57;;;;;;;4.18;1.50;;;22.20;62.40;;;;;;4163660;28;20037;-49
2022/10/17 03:27:19;;;;;;;2.53;0.98;;;22.20;62.40;;;;;;4167850;28;20127;-52
2022/10/17 03:29:42;;;;;;;2.08;1.08;;;22.30;62.40;;;;;;4174928;28;20107;-50
2022/10/17 03:32:05;;;;;;;3.58;1.38;;;22.30;62.40;;;;;;4165804;28;20497;-48
2022/10/17 03:34:27;;;;;;;3.92;1.40;;;22.40;62.30;;;;;;4165382;28;20043;-50
2022/10/17 03:36:50;;;;;;;5.53;1.58;;;22.40;62.00;;;;;;4166300;28;20063;-52
2022/10/17 03:39:13;;;;;;;4.38;1.30;;;22.40;61.90;;;;;;4166318;28;20055;-51
2022/10/17 03:41:35;;;;;;;4.05;1.30;;;22.40;62.10;;;;;;4168567;28;20040;-46
2022/10/17 03:43:58;;;;;;;8.40;1.45;;;22.50;62.20;;;;;;4171316;28;20037;-50
2022/10/17 03:46:20;;;;;;;10.45;1.70;;;22.60;62.00;;;;;;4169847;28;20170;-54
2022/10/17 03:48:43;;;;;;;3.70;1.30;;;22.60;62.00;;;;;;4164525;28;20048;-51
2022/10/17 03:51:08;;;;;;;4.68;1.25;;;22.60;61.90;;;;;;4163817;28;20037;-51
2022/10/17 03:53:31;;;;;;;4.22;1.17;;;22.70;62.40;;;;;;4165002;28;20033;-49
2022/10/17 03:55:54;;;;;;;2.88;1.30;;;22.70;61.70;;;;;;4168136;28;20522;-51
2022/10/17 03:58:16;;;;;;;4.45;1.33;;;22.70;61.70;;;;;;4165680;28;20048;-53
2022/10/17 04:00:38;;;;;;;11.93;2.10;;;22.80;61.60;;;;;;4165616;28;20387;-52
2022/10/17 04:03:01;;;;;;;3.67;1.60;;;22.80;61.50;;;;;;4163648;28;20119;-49
2022/10/17 04:05:24;;;;;;;3.35;1.45;;;22.80;61.60;;;;;;4165839;28;20081;-47
2022/10/17 04:07:46;;;;;;;3.03;1.20;;;22.90;61.50;;;;;;4166821;28;20037;-51
2022/10/17 04:10:09;;;;;;;4.25;1.30;;;23.00;61.40;;;;;;4165646;28;20036;-53
2022/10/17 04:12:32;;;;;;;4.78;2.08;;;23.00;61.20;;;;;;4168329;28;20145;-49
2022/10/17 04:14:54;;;;;;;3.13;1.23;;;23.10;61.10;;;;;;4167674;28;20110;-49
2022/10/17 04:17:17;;;;;;;8.02;1.90;;;23.10;60.90;;;;;;4161012;28;20045;-51
2022/10/17 04:19:40;;;;;;;4.55;1.35;;;23.20;60.90;;;;;;4168536;28;20112;-53
2022/10/17 04:22:02;;;;;;;3.10;1.30;;;23.30;60.90;;;;;;4166520;28;20068;-53
2022/10/17 04:24:25;;;;;;;7.18;1.63;;;23.40;60.50;;;;;;4172105;28;20087;-53
2022/10/17 04:26:50;;;;;;;3.35;1.23;;;23.50;60.30;;;;;;4163140;28;20056;-54
2022/10/17 04:29:12;;;;;;;2.67;1.00;;;23.50;60.20;;;;;;4168545;28;20677;-54
2022/10/17 04:31:35;;;;;;;6.55;1.52;;;23.50;60.20;;;;;;4166765;28;20038;-50
2022/10/17 04:33:57;;;;;;;5.90;1.67;;;23.60;60.20;;;;;;4163023;28;20059;-49
2022/10/17 04:36:21;;;;;;;7.22;1.40;;;23.60;60.20;;;;;;4161726;28;20067;-51
2022/10/17 04:38:44;;;;;;;5.47;1.45;;;23.60;60.10;;;;;;4160375;28;20036;-52
2022/10/17 04:41:10;;;;;;;6.78;1.40;;;23.70;60.70;;;;;;4162893;28;20045;-51
2022/10/17 04:43:35;;;;;;;6.65;1.88;;;23.80;60.00;;;;;;4166957;28;20470;-54
2022/10/17 04:45:58;;;;;;;3.10;1.08;;;23.80;59.80;;;;;;4164729;28;20212;-50
2022/10/17 04:48:21;;;;;;;4.28;1.38;;;23.90;59.80;;;;;;4170926;28;20530;-51
2022/10/17 04:50:57;;;;;;;3.72;1.50;;;24.00;59.60;;;;;;4167758;28;20056;-57
2022/10/17 04:53:19;;;;;;;4.75;1.15;;;24.00;59.10;;;;;;4166934;28;20352;-53
2022/10/17 04:55:42;;;;;;;5.13;1.70;;;24.10;59.00;;;;;;4172946;28;20148;-57
2022/10/17 04:58:04;;;;;;;7.25;1.48;;;24.20;58.90;;;;;;4166803;28;20310;-56
2022/10/17 05:00:27;;;;;;;2.53;1.30;;;24.30;58.70;;;;;;4168497;28;20458;-56
2022/10/17 05:02:49;;;;;;;3.78;1.30;;;24.40;58.60;;;;;;4169461;28;20073;-56
2022/10/17 05:05:12;;;;;;;3.47;1.20;;;24.40;58.60;;;;;;4167283;28;20034;-53
2022/10/17 05:07:34;;;;;;;4.32;1.50;;;24.30;58.60;;;;;;4164086;28;20231;-51
2022/10/17 05:09:57;;;;;;;5.53;1.42;;;24.30;58.80;;;;;;4164933;28;20559;-51
2022/10/17 05:12:20;;;;;;;3.13;1.27;;;24.30;59.10;;;;;;4168865;28;20044;-50
2022/10/17 05:14:42;;;;;;;4.93;1.52;;;24.30;58.90;;;;;;4168689;28;20046;-52
2022/10/17 05:17:05;;;;;;;2.03;1.30;;;24.30;59.00;;;;;;4165997;28;20121;-54
2022/10/17 05:19:27;;;;;;;3.67;1.10;;;24.30;59.10;;;;;;4165014;28;20040;-53
2022/10/17 05:21:50;;;;;;;3.42;1.13;;;24.30;59.10;;;;;;4165393;28;20373;-53
2022/10/17 05:24:14;;;;;;;3.03;1.38;;;24.30;59.00;;;;;;4170254;28;20037;-51
2022/10/17 05:26:36;;;;;;;;;;;24.30;59.10;;;;;;4178803;28;20393;-53
2022/10/17 05:29:01;;;;;;;3.78;1.33;;;24.20;59.10;;;;;;4175334;28;19908;-50
2022/10/17 05:31:24;;;;;;;3.45;1.50;;;24.20;59.10;;;;;;4166162;28;20072;-53
2022/10/17 05:33:47;;;;;;;3.45;1.23;;;24.20;59.10;;;;;;4166016;28;20440;-52
2022/10/17 05:36:09;;;;;;;3.45;1.08;;;24.30;58.90;;;;;;4177097;28;20038;-52
2022/10/17 05:38:32;;;;;;;8.90;1.50;;;24.30;59.00;;;;;;4163376;28;20067;-52
2022/10/17 05:41:02;;;;;;;6.40;1.88;;;24.40;59.00;;;;;;4169082;28;20041;-49
2022/10/17 05:43:24;;;;;;;12.07;2.00;;;24.40;58.70;;;;;;4167069;28;20117;-56
2022/10/17 05:45:47;;;;;;;4.18;1.80;;;24.50;58.60;;;;;;4171012;28;20049;-56
2022/10/17 05:48:09;;;;;;;4.13;1.33;;;24.60;58.30;;;;;;4163491;28;20436;-53
2022/10/17 05:50:32;;;;;;;6.03;1.40;;;24.70;58.20;;;;;;4171201;28;20041;-54
2022/10/17 05:52:55;;;;;;;7.38;1.35;;;24.70;57.90;;;;;;4170497;28;20041;-50
2022/10/17 05:55:18;;;;;;;8.50;1.70;;;24.80;57.70;;;;;;4167537;28;20041;-56
2022/10/17 05:57:40;;;;;;;3.60;1.38;;;24.90;57.60;;;;;;4164572;28;20037;-53
2022/10/17 06:00:05;;;;;;;3.03;1.15;;;24.90;57.50;;;;;;4162244;28;20037;-53
2022/10/17 06:02:27;;;;;;;4.35;1.20;;;25.00;57.30;;;;;;4166575;28;20036;-55
2022/10/17 06:04:50;;;;;;;3.60;1.25;;;25.10;57.20;;;;;;4167049;28;20419;-51
2022/10/17 06:07:14;;;;;;;3.28;1.25;;;25.10;56.90;;;;;;4167457;28;20135;-53
2022/10/17 06:09:37;;;;;;;2.97;1.42;;;25.10;57.00;;;;;;4168355;28;20033;-51
2022/10/17 06:11:59;;;;;;;3.58;1.30;;;25.10;56.80;;;;;;4166895;28;20056;-54
2022/10/17 06:14:22;;;;;;;2.58;1.05;;;25.20;55.80;;;;;;4168755;28;20444;-50
2022/10/17 06:16:44;;;;;;;4.55;1.25;;;25.10;55.30;;;;;;4166019;28;20041;-54
2022/10/17 06:19:07;;;;;;;4.03;1.30;;;25.20;55.20;;;;;;4161298;28;20511;-54
2022/10/17 06:21:33;;;;;;;3.47;1.33;;;25.10;55.10;;;;;;4162761;28;20029;-54
2022/10/17 06:23:55;;;;;;;3.13;1.30;;;25.10;54.90;;;;;;4170776;28;20056;-53
2022/10/17 06:26:18;;;;;;;4.50;1.35;;;25.10;54.90;;;;;;4172385;28;20571;-51
2022/10/17 06:28:41;;;;;;;3.50;1.38;;;25.10;54.80;;;;;;4180414;28;20073;-53
2022/10/17 06:31:14;;;;;;;3.63;1.33;;;25.00;54.80;;;;;;4169633;28;20040;-51
2022/10/17 06:33:37;;;;;;;3.22;1.30;;;25.00;54.80;;;;;;4171643;28;20030;-48
2022/10/17 06:36:00;;;;;;;6.43;1.80;;;24.90;54.60;;;;;;4170132;28;20039;-52
2022/10/17 06:38:23;;;;;;;6.53;1.55;;;24.90;54.80;;;;;;4166634;28;20273;-53
2022/10/17 06:40:45;;;;;;;3.40;1.30;;;24.90;55.00;;;;;;4170422;28;20033;-49
2022/10/17 06:43:08;;;;;;;7.30;1.42;;;24.90;55.30;;;;;;4169652;28;20041;-55
2022/10/17 06:45:30;;;;;;;7.72;1.55;;;24.90;55.40;;;;;;4169838;28;20037;-46
2022/10/17 06:47:54;;;;;;;5.70;1.40;;;24.90;55.60;;;;;;4159960;28;20131;-52
2022/10/17 06:50:16;;;;;;;6.75;1.48;;;24.90;55.90;;;;;;4168206;28;20436;-51
2022/10/17 06:52:39;;;;;;;4.13;1.45;;;24.90;56.00;;;;;;4166689;28;20281;-51
2022/10/17 06:55:01;;;;;;;6.32;1.50;;;24.90;56.00;;;;;;4170631;28;20036;-52
2022/10/17 06:57:24;;;;;;;3.30;1.20;;;24.90;56.20;;;;;;4175595;28;20048;-50
2022/10/17 06:59:46;;;;;;;3.25;1.48;;;24.90;56.10;;;;;;4165098;28;20039;-48
2022/10/17 07:02:10;;;;;;;4.88;1.35;;;24.80;56.20;;;;;;4168720;28;20412;-50
2022/10/17 07:04:33;;;;;;;6.65;1.40;;;24.80;56.40;;;;;;4165536;28;20515;-48
2022/10/17 07:06:55;;;;;;;6.50;1.40;;;24.80;56.50;;;;;;4171895;28;20059;-51
2022/10/17 07:09:18;;;;;;;3.97;1.38;;;24.80;56.50;;;;;;4169085;28;20041;-47
2022/10/17 07:11:40;;;;;;;3.85;1.67;;;24.80;56.70;;;;;;4165606;28;20655;-48
2022/10/17 07:14:03;;;;;;;4.43;1.60;;;24.80;56.80;;;;;;4170502;28;20139;-48
2022/10/17 07:16:26;;;;;;;4.43;1.40;;;24.80;56.90;;;;;;4173642;28;20049;-48
2022/10/17 07:18:53;;;;;;;8.48;1.40;;;24.80;57.00;;;;;;4170740;28;20469;-46
2022/10/17 07:21:16;;;;;;;3.40;1.55;;;24.70;57.10;;;;;;4166856;28;20412;-49
2022/10/17 07:23:39;;;;;;;4.15;1.30;;;24.70;57.30;;;;;;4170484;28;20068;-51
2022/10/17 07:26:06;;;;;;;3.90;1.50;;;24.70;57.20;;;;;;4171818;28;20051;-53
2022/10/17 07:28:29;;;;;;;4.70;1.70;;;24.60;57.50;;;;;;4168715;28;20098;-50
2022/10/17 07:30:51;;;;;;;3.55;1.83;;;24.60;57.20;;;;;;4168356;28;20049;-55
2022/10/17 07:33:14;;;;;;;4.53;1.40;;;24.60;57.20;;;;;;4166899;28;20472;-49
2022/10/17 07:35:42;;;;;;;3.15;1.50;;;24.60;57.20;;;;;;4171152;28;20038;-54
2022/10/17 07:38:04;;;;;;;2.88;1.38;;;24.50;57.00;;;;;;4165861;28;20419;-50
2022/10/17 07:40:27;;;;;;;7.00;1.92;;;24.50;57.40;;;;;;4171946;28;20124;-51
2022/10/17 07:42:49;;;;;;;4.75;1.80;;;24.50;57.00;;;;;;4168531;28;20832;-49
2022/10/17 07:45:12;;;;;;;3.38;1.45;;;24.50;57.00;;;;;;4169916;28;20033;-54
2022/10/17 07:47:35;;;;;;;8.85;1.70;;;24.40;57.10;;;;;;4166291;28;21219;-54
2022/10/17 07:49:57;;;;;;;6.30;2.05;;;24.40;57.00;;;;;;4166053;28;20021;-52
2022/10/17 07:52:20;;;;;;;3.05;1.40;;;24.40;57.00;;;;;;4163127;28;20504;-52
2022/10/17 07:54:43;;;;;;;6.55;1.63;;;24.40;56.90;;;;;;4165229;28;20930;-50
2022/10/17 07:57:06;;;;;;;6.10;2.00;;;24.40;57.10;;;;;;4167933;28;20083;-53
2022/10/17 07:59:29;;;;;;;4.33;1.67;;;24.30;56.90;;;;;;4168451;28;20040;-51
2022/10/17 08:01:54;;;;;;;3.55;1.60;;;24.30;57.20;;;;;;4168188;28;20772;-53
2022/10/17 08:04:17;;;;;;;3.15;1.40;;;24.30;57.20;;;;;;4167779;28;20045;-49
2022/10/17 08:06:39;;;;;;;4.18;1.60;;;24.20;57.20;;;;;;4166976;28;20041;-56
2022/10/17 08:09:02;;;;;;;5.38;1.45;;;24.20;57.30;;;;;;4163452;28;20505;-47
2022/10/17 08:11:24;;;;;;;2.67;1.43;;;24.20;57.20;;;;;;4175569;28;20037;-53
2022/10/17 08:13:47;;;;;;;3.88;1.50;;;24.20;57.20;;;;;;4171402;28;20035;-53
2022/10/17 08:16:12;;;;;;;4.75;1.60;;;24.20;57.20;;;;;;4172360;28;20399;-49
2022/10/17 08:18:35;;;;;;;5.82;1.50;;;24.10;57.20;;;;;;4166797;28;20040;-51
2022/10/17 08:21:04;;;;;;;5.10;1.58;;;24.10;57.00;;;;;;4171631;28;20037;-49
2022/10/17 08:23:27;;;;;;;5.72;1.45;;;24.10;57.10;;;;;;4182225;28;20093;-49
2022/10/17 08:25:49;;;;;;;8.52;1.65;;;24.10;57.20;;;;;;4161145;28;20033;-47
2022/10/17 08:28:12;;;;;;;2.83;1.00;;;24.10;57.20;;;;;;4171109;28;20111;-52
2022/10/17 08:30:35;;;;;;;9.35;1.70;;;24.00;57.00;;;;;;4163943;28;20038;-47
2022/10/17 08:32:57;;;;;;;3.55;1.00;;;24.00;57.00;;;;;;4162494;28;20409;-46
2022/10/17 08:35:21;;;;;;;3.33;1.63;;;24.00;56.80;;;;;;4165942;28;20050;-48
2022/10/17 08:37:43;;;;;;;4.70;1.50;;;24.00;56.80;;;;;;4164945;28;20048;-47
2022/10/17 08:40:06;;;;;;;3.28;1.20;;;23.90;56.70;;;;;;4161971;28;20041;-46
2022/10/17 08:42:47;;;;;;;4.17;1.47;;;23.90;56.60;;;;;;4168408;28;20528;-48
2022/10/17 08:45:47;;;;;;;4.25;1.77;;;23.80;56.70;;;;;;4160675;28;20393;-46
2022/10/17 08:48:19;;;;;;;3.85;1.33;;;23.80;56.80;;;;;;4173291;28;20049;-47
2022/10/17 08:51:11;;;;;;;3.00;1.20;;;23.70;56.80;;;;;;4164846;28;20044;-46
2022/10/17 08:53:52;;;;;;;4.22;1.40;;;23.70;57.00;;;;;;4175432;28;20037;-42
2022/10/17 08:56:23;;;;;;;3.90;1.40;;;23.60;56.90;;;;;;4165289;28;20521;-47
2022/10/17 08:58:46;;;;;;;2.92;1.20;;;23.60;56.90;;;;;;4162376;28;20036;-43
2022/10/17 09:01:42;;;;;;;3.33;1.60;;;23.60;57.00;;;;;;4174155;28;20109;-46
2022/10/17 09:04:22;;;;;;;4.22;1.38;;;23.60;57.80;;;;;;4170032;28;20082;-46
2022/10/17 09:07:10;;;;;;;4.40;1.42;;;23.50;57.20;;;;;;4166431;28;20170;-43
2022/10/17 09:09:53;;;;;;;2.40;1.40;;;23.50;57.20;;;;;;4163104;28;20083;-44
2022/10/17 09:12:34;;;;;;;3.13;1.20;;;23.50;57.30;;;;;;4164352;28;20048;-46
2022/10/17 09:15:34;;;;;;;2.30;1.05;;;23.50;57.40;;;;;;4165693;28;20036;-46
2022/10/17 09:17:56;;;;;;;2.10;1.25;;;23.40;57.50;;;;;;4165436;28;20041;-48
2022/10/17 09:20:42;;;;;;;3.08;1.10;;;23.40;57.60;;;;;;4160827;28;20037;-44
2022/10/17 09:23:24;;;;;;;3.97;1.50;;;23.40;57.60;;;;;;4161925;28;20037;-44
2022/10/17 09:26:04;;;;;;;2.25;1.02;;;23.40;57.60;;;;;;4174830;28;20142;-49
2022/10/17 09:28:32;;;;;;;2.42;1.23;;;23.40;57.70;;;;;;4163880;28;20071;-49
2022/10/17 09:31:05;;;;;;;2.65;1.17;;;23.40;57.70;;;;;;4162655;28;20645;-46
2022/10/17 09:33:33;;;;;;;2.03;1.05;;;23.40;57.70;;;;;;4162996;28;20028;-46
2022/10/17 09:35:57;;;;;;;2.72;1.05;;;23.40;57.80;;;;;;4167780;28;20090;-51
2022/10/17 09:38:23;;;;;;;2.35;1.10;;;23.40;58.00;;;;;;4166649;28;20037;-49
2022/10/17 09:40:53;;;;;;;2.03;1.10;;;23.30;58.10;;;;;;4161445;28;20140;-46
2022/10/17 09:43:15;;;;;;;3.40;1.17;;;23.30;58.10;;;;;;4162064;28;20132;-49
2022/10/17 09:46:05;;;;;;;3.13;1.30;;;23.30;58.10;;;;;;4165678;28;20066;-47
2022/10/17 09:48:37;;;;;;;2.65;1.10;;;23.30;58.20;;;;;;4168214;28;20132;-44
2022/10/17 09:51:00;;;;;;;1.85;1.15;;;23.30;58.20;;;;;;4172768;28;20560;-47
2022/10/17 09:53:29;;;;;;;2.38;1.10;;;23.30;58.30;;;;;;4165529;28;20033;-52
2022/10/17 09:56:01;;;;;;;3.63;1.25;;;23.20;58.30;;;;;;4163730;28;20041;-51
2022/10/17 09:58:38;;;;;;;2.42;1.10;;;23.20;58.40;;;;;;4163316;28;21444;-48
2022/10/17 10:01:17;;;;;;;2.95;1.27;;;23.20;58.50;;;;;;4163660;28;20124;-55
2022/10/17 10:03:39;;;;;;;2.33;1.00;;;23.20;58.50;;;;;;4165963;28;20129;-51
2022/10/17 10:06:12;;;;;;;1.70;0.85;;;23.10;58.50;;;;;;4168191;28;20091;-50
2022/10/17 10:09:04;;;;;;;3.75;1.40;;;23.10;58.50;;;;;;4159152;28;20127;-51
2022/10/17 10:11:51;;;;;;;2.55;1.25;;;23.10;58.60;;;;;;4165320;28;20049;-49
2022/10/17 10:14:27;;;;;;;2.50;1.17;;;23.10;58.60;;;;;;4165651;28;20132;-48
2022/10/17 10:16:52;;;;;;;3.20;1.00;;;23.10;58.70;;;;;;4167537;28;20040;-48
2022/10/17 10:19:38;;;;;;;2.15;0.98;;;23.10;58.70;;;;;;4175338;28;20076;-50
2022/10/17 10:22:02;;;;;;;2.42;1.30;;;23.00;58.80;;;;;;4179073;28;20437;-59
2022/10/17 10:24:26;;;;;;;2.25;1.13;;;23.00;58.80;;;;;;4154911;28;20036;-50
2022/10/17 10:26:52;;;;;;;2.08;1.08;;;23.00;58.80;;;;;;4165653;28;20135;-51
2022/10/17 10:29:37;;;;;;;2.60;1.30;;;23.00;58.80;;;;;;4169059;28;20025;-51
2022/10/17 10:32:22;;;;;;;2.13;0.93;;;23.00;58.90;;;;;;4164756;28;20041;-48
2022/10/17 10:34:53;;;;;;;2.72;1.30;;;22.90;58.90;;;;;;4172361;28;20041;-53
2022/10/17 10:37:28;;;;;;;2.72;1.10;;;22.90;59.00;;;;;;4178098;28;20048;-52
2022/10/17 10:39:56;;;;;;;2.75;1.48;;;22.90;59.00;;;;;;4171446;28;20558;-53
2022/10/17 10:42:30;;;;;;;3.45;1.25;;;22.80;59.00;;;;;;4162094;28;20067;-58
2022/10/17 10:44:57;;;;;;;2.85;1.00;;;22.80;59.20;;;;;;4169381;28;20036;-57
2022/10/17 10:47:23;;;;;;;3.33;1.35;;;22.80;59.20;;;;;;4165767;28;20049;-58
2022/10/17 10:49:45;;;;;;;2.35;1.30;;;22.90;59.20;;;;;;4171422;28;20115;-53
2022/10/17 10:52:14;;;;;;;3.22;0.95;;;22.90;59.20;;;;;;4166950;28;20048;-55
2022/10/17 10:54:48;;;;;;;2.67;1.33;;;22.90;59.20;;;;;;4176912;28;20127;-57
2022/10/17 10:57:18;;;;;;;2.10;1.03;;;22.90;59.30;;;;;;4164221;28;20041;-54
2022/10/17 10:59:57;;;;;;;1.45;0.80;;;22.90;59.30;;;;;;4171730;28;20063;-57
2022/10/17 11:02:45;;;;;;;1.92;0.88;;;22.90;59.30;;;;;;4169316;28;20045;-57
2022/10/17 11:05:10;;;;;;;1.25;0.70;;;23.00;59.30;;;;;;4172054;28;20116;-57
2022/10/17 11:07:42;;;;;;;1.80;0.85;;;23.00;59.30;;;;;;4162977;28;20037;-57
2022/10/17 11:10:10;;;;;;;3.80;0.70;;;23.00;59.30;;;;;;4156655;28;20037;-57
2022/10/17 11:12:48;;;;;;;3.15;1.20;;;23.00;59.30;;;;;;4174750;28;20032;-58
2022/10/17 11:15:35;;;;;;;3.50;1.20;;;23.00;59.30;;;;;;4180583;28;20046;-45
2022/10/17 11:18:05;;;;;;;3.28;1.10;;;23.00;59.40;;;;;;4168114;28;20029;-50
2022/10/17 11:20:48;;;;;;;1.77;1.10;;;22.90;58.80;;;;;;4173819;28;20091;-53
2022/10/17 11:23:22;;;;;;;2.08;0.88;;;22.90;58.60;;;;;;4168781;28;20043;-63
2022/10/17 11:25:47;;;;;;;2.15;0.77;;;22.90;58.60;;;;;;4169519;28;20382;-63
2022/10/17 11:28:18;;;;;;;1.75;0.70;;;22.80;58.60;;;;;;4169864;28;20037;-67
2022/10/17 11:30:44;;;;;;;1.13;0.73;;;22.80;58.70;;;;;;4163527;28;20053;-64
2022/10/17 11:33:11;;;;;;;1.00;0.68;;;22.80;58.90;;;;;;4167225;28;20025;-64
2022/10/17 11:35:37;;;;;;;6.72;0.95;;;22.80;59.00;;;;;;4167495;28;20037;-64
2022/10/17 11:38:25;;;;;;;2.53;1.05;;;22.70;59.00;;;;;;4168698;28;20044;-61
2022/10/17 11:40:51;;;;;;;0.93;0.50;;;22.70;59.20;;;;;;4166319;28;20060;-60
2022/10/17 11:43:22;;;;;;;1.42;0.57;;;22.70;59.30;;;;;;4162150;28;20183;-63
2022/10/17 11:45:55;;;;;;;1.58;0.70;;;22.70;59.30;;;;;;4169014;28;20053;-61
2022/10/17 11:48:46;;;;;;;0.98;0.60;;;22.70;59.40;;;;;;4164152;28;20059;-58
2022/10/17 11:51:11;;;;;;;1.00;0.60;;;22.70;59.40;;;;;;4169737;28;20030;-60
2022/10/17 11:54:03;;;;;;;1.48;0.75;;;22.70;59.60;;;;;;4166339;28;20033;-63
2022/10/17 11:56:58;;;;;;;0.88;0.55;;;22.70;59.80;;;;;;4168759;28;20044;-58
2022/10/17 11:59:47;;;;;;;0.85;0.63;;;22.70;59.80;;;;;;4168080;28;20045;-59
2022/10/17 12:02:29;;;;;;;1.67;0.52;;;22.70;59.80;;;;;;4169577;28;20037;-60
2022/10/17 12:05:01;;;;;;;1.08;0.50;;;22.60;59.80;;;;;;4161133;28;20037;-61
2022/10/17 12:07:51;;;;;;;1.10;0.70;;;22.60;59.80;;;;;;4173828;28;20110;-59
2022/10/17 12:10:44;;;;;;;2.38;0.60;;;22.60;59.70;;;;;;4169201;28;20072;-47
2022/10/17 12:13:28;;;;;;;1.60;0.90;;;22.60;59.50;;;;;;4176457;28;20537;-50
2022/10/17 12:15:50;;;;;;;2.13;0.77;;;22.60;59.40;;;;;;4173371;28;20075;-49
2022/10/17 12:18:17;;;;;;;1.88;0.80;;;22.50;59.30;;;;;;4163906;28;20037;-59
2022/10/17 12:20:40;;;;;;;1.13;0.60;;;22.50;59.40;;;;;;4167624;28;20091;-58
2022/10/17 12:23:11;;;;;;;2.30;0.70;;;22.50;59.40;;;;;;4164848;28;20045;-58
2022/10/17 12:25:38;;;;;;;3.05;0.75;;;22.40;59.50;;;;;;4169343;28;20068;-58
2022/10/17 12:28:14;;;;;;;1.40;0.50;;;22.40;59.60;;;;;;4166671;28;20041;-58
2022/10/17 12:30:48;;;;;;;1.90;0.63;;;22.40;59.70;;;;;;4170603;28;20392;-59
2022/10/17 12:33:22;;;;;;;0.98;0.73;;;22.40;59.60;;;;;;4169565;28;20068;-59
2022/10/17 12:35:44;;;;;;;;;;;22.40;59.70;;;;;;4170259;28;20423;-60
2022/10/17 12:38:22;;;;;;;1.73;0.50;;;22.40;59.90;;;;;;4169450;28;19920;-59
2022/10/17 12:40:49;;;;;;;1.58;0.50;;;22.40;59.90;;;;;;4167334;28;20079;-60
2022/10/17 12:43:14;;;;;;;1.17;0.52;;;22.40;59.90;;;;;;4170418;28;20048;-61
2022/10/17 12:46:04;;;;;;;1.23;0.50;;;22.40;60.00;;;;;;4166869;28;20106;-60
2022/10/17 12:48:39;;;;;;;0.75;0.40;;;22.40;60.10;;;;;;4165639;28;20416;-60
2022/10/17 12:51:01;;;;;;;0.60;0.50;;;22.30;60.00;;;;;;4165935;28;20102;-60
2022/10/17 12:53:29;;;;;;;1.55;0.40;;;22.30;60.20;;;;;;4163824;28;20113;-60